F44

Athens Municipal Airport

Athens, Texas, USA
METAR KF44 170035Z AUTO 00000KT 10SM CLR 12/06 A3024 RMK AO2
Observed Flight Rules
Dec-17 @ 00:35 UTC (9 minutes ago) Visual Flight Rules
Visibility Clouds
10 miles
  • Clear skies
Temperatures Readings
Current 12°C / 54°F
Dewpoint 6°C / 43°F
Humidity 67%
Altimeter 30.24" Hg
Pressure 1024 hPa
Elevation 135
METAR KF44 170035Z AUTO 00000KT 10SM CLR 12/06 A3024 RMK AO2
Observed Flight Rules
Dec-17 @ 00:35 UTC
(9 minutes ago)
VFR
Clouds
  • Clear skies
Temperature Dewpoint
12°C / 54°F 6°C / 43°F
Humidity Altimeter Pressure
67% 30.24" Hg 1024 hPa